createdAt,value
2022-09-30T00:01:26.083Z,8.35
2022-09-30T00:03:54.214Z,8.33
2022-09-30T00:06:21.744Z,8.27
2022-09-30T00:08:48.781Z,8.24
2022-09-30T00:11:18.197Z,8.10
2022-09-30T00:13:47.106Z,8.08
2022-09-30T00:16:15.532Z,8.12
2022-09-30T00:18:43.439Z,8.11
2022-09-30T00:21:11.563Z,8.13
2022-09-30T00:23:39.125Z,8.04
2022-09-30T00:26:09.730Z,8.21
2022-09-30T00:28:36.496Z,8.12
2022-09-30T00:31:07.642Z,7.94
2022-09-30T00:33:35.172Z,8.01
2022-09-30T00:36:02.617Z,8.05
2022-09-30T00:38:29.622Z,8.15
2022-09-30T00:40:56.597Z,8.09
2022-09-30T00:43:53.509Z,8.06
2022-09-30T00:46:28.848Z,8.01
2022-09-30T00:48:57.302Z,7.96
2022-09-30T00:51:37.370Z,8.00
2022-09-30T00:54:07.698Z,8.00
2022-09-30T00:56:39.356Z,7.90
2022-09-30T00:59:13.006Z,7.82
2022-09-30T01:01:41.496Z,7.82
2022-09-30T01:04:26.728Z,7.87
2022-09-30T01:06:53.816Z,7.71
2022-09-30T01:09:21.023Z,7.70
2022-09-30T01:11:48.167Z,7.74
2022-09-30T01:14:21.874Z,7.70
2022-09-30T01:17:33.394Z,7.81
2022-09-30T01:20:51.710Z,7.79
2022-09-30T01:23:35.974Z,7.72
2022-09-30T01:26:50.940Z,7.76
2022-09-30T01:29:56.332Z,7.79
2022-09-30T01:32:49.420Z,7.37
2022-09-30T01:35:31.996Z,7.36
2022-09-30T01:38:30.031Z,7.18
2022-09-30T01:41:10.616Z,7.30
2022-09-30T01:44:06.629Z,6.91
2022-09-30T01:46:46.643Z,6.93
2022-09-30T01:49:44.207Z,7.08
2022-09-30T01:52:33.234Z,7.20
2022-09-30T01:55:23.099Z,7.28
2022-09-30T01:57:59.060Z,7.20
2022-09-30T02:00:26.189Z,7.28
2022-09-30T02:03:00.115Z,7.13
2022-09-30T02:05:38.064Z,7.26
2022-09-30T02:08:08.421Z,7.22
2022-09-30T02:10:39.616Z,7.33
2022-09-30T02:13:15.114Z,7.17
2022-09-30T02:15:45.691Z,7.21
2022-09-30T02:18:42.477Z,7.18
2022-09-30T02:21:10.765Z,7.25
2022-09-30T02:23:41.118Z,7.30
2022-09-30T02:26:11.919Z,7.35
2022-09-30T02:28:42.740Z,7.33
2022-09-30T02:31:11.447Z,7.29
2022-09-30T02:33:45.338Z,7.17
2022-09-30T02:36:25.169Z,7.02
2022-09-30T02:39:11.385Z,7.18
2022-09-30T02:41:45.763Z,7.09
2022-09-30T02:44:12.907Z,7.13
2022-09-30T02:47:24.747Z,6.97
2022-09-30T02:50:35.401Z,6.98
2022-09-30T02:53:34.209Z,7.01
2022-09-30T02:56:03.796Z,7.09
2022-09-30T02:58:30.863Z,7.02
2022-09-30T03:00:58.021Z,7.03
2022-09-30T03:03:29.481Z,6.98
2022-09-30T03:05:56.684Z,6.93
2022-09-30T03:08:23.778Z,7.04
2022-09-30T03:10:51.976Z,6.91
2022-09-30T03:14:00.328Z,7.01
2022-09-30T03:16:45.346Z,7.00
2022-09-30T03:19:46.391Z,7.05
2022-09-30T03:22:56.970Z,6.90
2022-09-30T03:25:51.491Z,6.98
2022-09-30T03:28:25.907Z,7.03
2022-09-30T03:31:51.381Z,6.97
2022-09-30T03:34:59.641Z,6.96
2022-09-30T03:37:57.762Z,6.97
2022-09-30T03:40:37.751Z,6.94
2022-09-30T03:43:11.131Z,6.80
2022-09-30T03:45:41.861Z,6.83
2022-09-30T03:48:10.737Z,6.87
2022-09-30T03:50:38.485Z,6.86
2022-09-30T03:53:11.303Z,6.85
2022-09-30T03:55:58.502Z,6.68
2022-09-30T03:58:25.947Z,6.69
2022-09-30T04:00:54.847Z,6.60
2022-09-30T04:03:23.109Z,6.68
2022-09-30T04:05:49.958Z,6.66
2022-09-30T04:08:17.007Z,6.65
2022-09-30T04:10:44.566Z,6.61
2022-09-30T04:13:12.800Z,6.37
2022-09-30T04:15:40.900Z,6.36
2022-09-30T04:18:08.153Z,6.33
2022-09-30T04:20:35.078Z,6.37
2022-09-30T04:23:02.348Z,6.41
2022-09-30T04:25:29.339Z,6.31
2022-09-30T04:27:56.647Z,6.27
2022-09-30T04:30:26.280Z,6.28
2022-09-30T04:32:54.213Z,6.27
2022-09-30T04:35:20.997Z,6.10
2022-09-30T04:37:48.363Z,6.00
2022-09-30T04:40:16.098Z,6.08
2022-09-30T04:42:43.547Z,6.18
2022-09-30T04:45:12.118Z,6.19
2022-09-30T04:47:40.155Z,6.13
2022-09-30T04:50:07.582Z,6.02
2022-09-30T04:52:34.472Z,5.97
2022-09-30T04:55:01.173Z,6.05
2022-09-30T04:57:28.212Z,5.99
2022-09-30T04:59:55.261Z,6.03
2022-09-30T05:02:21.996Z,6.00
2022-09-30T05:04:48.814Z,6.02
2022-09-30T05:07:15.598Z,5.99
2022-09-30T05:09:42.501Z,6.02
2022-09-30T05:12:09.562Z,6.01
2022-09-30T05:14:36.275Z,5.96
2022-09-30T05:17:03.021Z,6.04
2022-09-30T05:19:29.853Z,5.91
2022-09-30T05:21:56.834Z,5.67
2022-09-30T05:24:23.863Z,5.74
2022-09-30T05:26:50.655Z,5.82
2022-09-30T05:29:17.741Z,5.95
2022-09-30T05:31:44.654Z,5.94
2022-09-30T05:34:11.606Z,5.99
2022-09-30T05:36:38.610Z,5.94
2022-09-30T05:39:05.376Z,5.78
2022-09-30T05:41:33.021Z,5.84
2022-09-30T05:44:01.299Z,5.83
2022-09-30T05:46:28.513Z,5.96
2022-09-30T05:48:55.601Z,5.95
2022-09-30T05:51:22.496Z,5.93
2022-09-30T05:53:49.317Z,5.93
2022-09-30T05:56:16.122Z,6.02
2022-09-30T05:58:42.902Z,5.99
2022-09-30T06:01:14.716Z,6.01
2022-09-30T06:03:45.854Z,5.94
2022-09-30T06:06:14.006Z,5.97
2022-09-30T06:08:41.595Z,5.89
2022-09-30T06:11:12.191Z,5.89
2022-09-30T06:13:40.311Z,5.90
2022-09-30T06:16:07.867Z,5.94
2022-09-30T06:18:35.165Z,5.95
2022-09-30T06:21:03.887Z,5.87
2022-09-30T06:23:31.752Z,5.91
2022-09-30T06:25:58.595Z,5.89
2022-09-30T06:28:25.518Z,5.89
2022-09-30T06:30:52.338Z,5.83
2022-09-30T06:33:19.586Z,5.76
2022-09-30T06:35:47.866Z,5.82
2022-09-30T06:38:16.037Z,5.79
2022-09-30T06:40:43.834Z,5.89
2022-09-30T06:43:11.631Z,5.97
2022-09-30T06:45:38.598Z,5.97
2022-09-30T06:48:07.436Z,5.99
2022-09-30T06:50:34.904Z,5.99
2022-09-30T06:53:03.756Z,6.03
2022-09-30T06:55:30.784Z,6.10
2022-09-30T06:57:57.967Z,6.16
2022-09-30T07:00:26.481Z,6.14
2022-09-30T07:02:59.335Z,6.08
2022-09-30T07:05:26.634Z,6.20
2022-09-30T07:07:54.222Z,6.06
2022-09-30T07:10:21.219Z,6.15
2022-09-30T07:12:52.179Z,6.11
2022-09-30T07:15:23.497Z,6.15
2022-09-30T07:17:54.464Z,6.02
2022-09-30T07:20:21.195Z,6.06
2022-09-30T07:22:48.016Z,5.98
2022-09-30T07:25:15.966Z,6.04
2022-09-30T07:27:42.822Z,5.80
2022-09-30T07:30:16.105Z,5.96
2022-09-30T07:32:47.898Z,6.02
2022-09-30T07:35:14.716Z,6.08
2022-09-30T07:37:41.449Z,6.11
2022-09-30T07:40:09.751Z,6.22
2022-09-30T07:42:46.224Z,6.14
2022-09-30T07:45:17.270Z,6.23
2022-09-30T07:47:44.002Z,6.36
2022-09-30T07:50:12.548Z,6.44
2022-09-30T07:52:39.224Z,6.51
2022-09-30T07:55:06.266Z,6.55
2022-09-30T07:57:32.954Z,6.61
2022-09-30T08:00:08.149Z,6.65
2022-09-30T08:02:46.469Z,6.75
2022-09-30T08:05:13.314Z,6.77
2022-09-30T08:07:40.571Z,6.74
2022-09-30T08:10:08.076Z,6.74
2022-09-30T08:12:35.363Z,6.71
2022-09-30T08:15:02.165Z,6.62
2022-09-30T08:17:28.901Z,6.60
2022-09-30T08:19:55.584Z,6.59
2022-09-30T08:22:24.181Z,6.65
2022-09-30T08:24:50.980Z,6.72
2022-09-30T08:27:17.717Z,6.74
2022-09-30T08:30:04.173Z,6.76
2022-09-30T08:32:32.073Z,6.92
2022-09-30T08:34:58.784Z,6.96
2022-09-30T08:37:25.530Z,6.99
2022-09-30T08:39:52.325Z,7.09
2022-09-30T08:42:40.272Z,7.18
2022-09-30T08:45:59.154Z,7.16
2022-09-30T08:48:49.347Z,7.37
2022-09-30T08:51:34.644Z,7.50
2022-09-30T08:54:04.189Z,7.32
2022-09-30T08:56:32.364Z,7.39
2022-09-30T08:59:23.013Z,7.73
2022-09-30T09:01:52.036Z,7.90
2022-09-30T09:04:19.249Z,7.77
2022-09-30T09:07:13.590Z,8.12
2022-09-30T09:10:04.346Z,8.20
2022-09-30T09:13:17.764Z,8.33
2022-09-30T09:16:06.716Z,8.43
2022-09-30T09:18:42.968Z,8.42
2022-09-30T09:21:25.388Z,8.47
2022-09-30T09:23:53.975Z,8.38
2022-09-30T09:26:20.746Z,8.46
2022-09-30T09:29:27.276Z,8.55
2022-09-30T09:31:55.350Z,8.63
2022-09-30T09:34:24.407Z,8.74
2022-09-30T09:37:18.839Z,8.84
2022-09-30T09:40:11.206Z,8.86
2022-09-30T09:42:58.694Z,8.86
2022-09-30T09:45:48.562Z,8.88
2022-09-30T09:48:17.720Z,8.83
2022-09-30T09:51:19.254Z,9.09
2022-09-30T09:53:58.662Z,8.98
2022-09-30T09:56:33.630Z,9.20
2022-09-30T09:59:13.409Z,9.38
2022-09-30T10:01:46.969Z,9.67
2022-09-30T10:04:19.518Z,9.95
2022-09-30T10:06:56.837Z,9.99
2022-09-30T10:09:29.447Z,10.13
2022-09-30T10:12:08.865Z,10.22
2022-09-30T10:14:59.018Z,10.51
2022-09-30T10:17:34.647Z,10.83
2022-09-30T10:20:07.675Z,11.12
2022-09-30T10:22:36.147Z,11.28
2022-09-30T10:25:11.764Z,11.48
2022-09-30T10:27:48.183Z,11.69
2022-09-30T10:30:31.133Z,11.77
2022-09-30T10:32:58.829Z,12.03
2022-09-30T10:35:26.507Z,12.13
2022-09-30T10:37:54.290Z,12.16
2022-09-30T10:40:22.940Z,12.25
2022-09-30T10:42:49.901Z,12.42
2022-09-30T10:45:28.335Z,12.64
2022-09-30T10:47:56.100Z,12.76
2022-09-30T10:50:25.509Z,12.83
2022-09-30T10:53:00.903Z,13.00
2022-09-30T10:55:44.369Z,13.08
2022-09-30T10:58:36.324Z,13.33
2022-09-30T11:01:17.085Z,13.36
2022-09-30T11:03:55.088Z,13.47
2022-09-30T11:06:25.381Z,13.58
2022-09-30T11:09:34.868Z,13.76
2022-09-30T11:12:12.252Z,13.98
2022-09-30T11:14:44.804Z,14.10
2022-09-30T11:17:31.676Z,13.99
2022-09-30T11:20:11.934Z,14.05
2022-09-30T11:23:00.420Z,14.23
2022-09-30T11:25:45.502Z,14.13
2022-09-30T11:28:45.999Z,14.18
2022-09-30T11:32:00.271Z,14.53
2022-09-30T11:34:38.682Z,14.68
2022-09-30T11:37:12.828Z,14.78
2022-09-30T11:40:09.275Z,14.88
2022-09-30T11:42:49.253Z,14.78
2022-09-30T11:45:56.055Z,15.06
2022-09-30T11:48:46.640Z,15.32
2022-09-30T11:51:32.925Z,15.36
2022-09-30T11:54:13.255Z,15.48
2022-09-30T11:56:58.371Z,15.59
2022-09-30T11:59:31.416Z,15.41
2022-09-30T12:02:02.226Z,15.63
2022-09-30T12:04:42.254Z,15.72
2022-09-30T12:07:17.753Z,15.79
2022-09-30T12:09:48.201Z,15.77
2022-09-30T12:12:17.907Z,15.90
2022-09-30T12:14:51.171Z,15.97
2022-09-30T12:17:39.319Z,15.88
2022-09-30T12:20:33.399Z,16.02
2022-09-30T12:23:21.404Z,16.11
2022-09-30T12:25:56.523Z,16.15
2022-09-30T12:29:03.994Z,16.22
2022-09-30T12:31:39.981Z,16.40
2022-09-30T12:34:37.075Z,16.48
2022-09-30T12:37:15.760Z,16.60
2022-09-30T12:40:31.877Z,16.79
2022-09-30T12:43:17.855Z,16.70
2022-09-30T12:46:09.047Z,16.90
2022-09-30T12:48:54.094Z,16.90
2022-09-30T12:51:31.480Z,17.09
2022-09-30T12:54:17.099Z,16.90
2022-09-30T12:56:45.059Z,16.85
2022-09-30T12:59:13.462Z,16.84
2022-09-30T13:01:42.305Z,16.55
2022-09-30T13:04:19.127Z,16.57
2022-09-30T13:07:06.123Z,16.72
2022-09-30T13:09:37.800Z,16.78
2022-09-30T13:12:26.496Z,16.75
2022-09-30T13:15:24.210Z,17.06
2022-09-30T13:17:50.943Z,17.11
2022-09-30T13:21:03.729Z,17.00
2022-09-30T13:23:40.759Z,17.11
2022-09-30T13:26:36.729Z,17.11
2022-09-30T13:29:26.666Z,16.97
2022-09-30T13:32:03.444Z,16.91
2022-09-30T13:34:35.724Z,17.00
2022-09-30T13:37:06.356Z,16.79
2022-09-30T13:39:55.899Z,16.65
2022-09-30T13:42:27.389Z,16.67
2022-09-30T13:45:31.527Z,16.38
2022-09-30T13:48:31.324Z,16.39
2022-09-30T13:51:00.201Z,16.29
2022-09-30T13:53:37.402Z,16.30
2022-09-30T13:56:10.397Z,16.30
2022-09-30T13:59:10.126Z,16.38
2022-09-30T14:02:11.707Z,16.55
2022-09-30T14:04:55.454Z,16.35
2022-09-30T14:08:07.036Z,16.39
2022-09-30T14:10:51.987Z,16.33
2022-09-30T14:13:50.390Z,16.28
2022-09-30T14:17:06.468Z,16.18
2022-09-30T14:20:01.505Z,16.40
2022-09-30T14:22:30.288Z,16.43
2022-09-30T14:24:58.080Z,16.40
2022-09-30T14:27:44.178Z,16.34
2022-09-30T14:30:21.261Z,16.36
2022-09-30T14:33:18.699Z,16.31
2022-09-30T14:35:45.642Z,16.50
2022-09-30T14:38:23.478Z,16.35
2022-09-30T14:40:55.535Z,16.57
2022-09-30T14:43:24.943Z,16.63
2022-09-30T14:45:55.390Z,16.75
2022-09-30T14:48:25.577Z,16.68
2022-09-30T14:51:01.840Z,16.63
2022-09-30T14:53:42.325Z,16.62
2022-09-30T14:56:23.776Z,16.60
2022-09-30T14:58:53.436Z,16.48
2022-09-30T15:01:26.203Z,16.40
2022-09-30T15:03:56.700Z,16.36
2022-09-30T15:06:26.273Z,16.32
2022-09-30T15:09:07.041Z,16.31
2022-09-30T15:11:39.531Z,16.31
2022-09-30T15:14:14.212Z,16.36
2022-09-30T15:16:53.036Z,16.33
2022-09-30T15:19:23.018Z,16.23
2022-09-30T15:21:54.961Z,16.14
2022-09-30T15:24:24.588Z,16.04
2022-09-30T15:26:53.463Z,15.95
2022-09-30T15:29:20.303Z,15.94
2022-09-30T15:31:58.741Z,15.81
2022-09-30T15:34:26.217Z,15.70
2022-09-30T15:36:59.887Z,15.69
2022-09-30T15:39:48.800Z,15.76
2022-09-30T15:42:29.317Z,15.73
2022-09-30T15:44:59.608Z,15.75
2022-09-30T15:47:27.987Z,15.68
2022-09-30T15:49:55.547Z,15.60
2022-09-30T15:52:40.759Z,15.56
2022-09-30T15:55:32.557Z,15.70
2022-09-30T15:58:01.111Z,15.55
2022-09-30T16:00:39.445Z,15.45
2022-09-30T16:03:13.400Z,15.45
2022-09-30T16:05:41.582Z,15.38
2022-09-30T16:08:09.993Z,15.30
2022-09-30T16:10:37.802Z,15.30
2022-09-30T16:13:07.122Z,15.24
2022-09-30T16:15:38.838Z,15.18
2022-09-30T16:18:05.701Z,15.11
2022-09-30T16:20:32.431Z,14.96
2022-09-30T16:23:01.882Z,15.03
2022-09-30T16:25:33.818Z,14.87
2022-09-30T16:28:14.554Z,14.86
2022-09-30T16:30:46.758Z,14.79
2022-09-30T16:33:15.178Z,14.79
2022-09-30T16:35:45.493Z,14.73
2022-09-30T16:38:13.741Z,14.63
2022-09-30T16:40:40.936Z,14.57
2022-09-30T16:43:08.200Z,14.52
2022-09-30T16:45:35.523Z,14.48
2022-09-30T16:48:02.948Z,14.46
2022-09-30T16:50:39.694Z,14.46
2022-09-30T16:53:06.804Z,14.36
2022-09-30T16:55:33.588Z,14.26
2022-09-30T16:58:00.433Z,14.14
2022-09-30T17:00:28.925Z,14.06
2022-09-30T17:02:55.715Z,13.95
2022-09-30T17:05:24.312Z,13.86
2022-09-30T17:08:01.125Z,13.79
2022-09-30T17:10:30.430Z,13.80
2022-09-30T17:13:00.549Z,13.68
2022-09-30T17:15:29.264Z,13.62
2022-09-30T17:17:56.478Z,13.52
2022-09-30T17:20:23.900Z,13.40
2022-09-30T17:22:50.885Z,13.26
2022-09-30T17:25:18.726Z,13.12
2022-09-30T17:27:50.221Z,12.99
2022-09-30T17:30:18.349Z,12.87
2022-09-30T17:32:45.787Z,12.72
2022-09-30T17:35:12.995Z,12.64
2022-09-30T17:37:45.549Z,12.55
2022-09-30T17:40:32.794Z,12.41
2022-09-30T17:43:08.823Z,12.39
2022-09-30T17:45:36.108Z,12.34
2022-09-30T17:48:03.630Z,12.22
2022-09-30T17:50:30.394Z,12.20
2022-09-30T17:52:57.363Z,11.93
2022-09-30T17:55:24.719Z,11.87
2022-09-30T17:57:51.603Z,11.86
2022-09-30T18:00:19.514Z,11.75
2022-09-30T18:02:46.387Z,11.78
2022-09-30T18:05:14.758Z,11.73
2022-09-30T18:07:41.856Z,11.55
2022-09-30T18:10:09.107Z,11.41
2022-09-30T18:12:41.287Z,11.28
2022-09-30T18:15:10.029Z,11.27
2022-09-30T18:17:36.961Z,11.14
2022-09-30T18:20:04.457Z,11.22
2022-09-30T18:22:31.389Z,11.22
2022-09-30T18:25:16.835Z,11.26
2022-09-30T18:27:43.661Z,11.07
2022-09-30T18:30:12.025Z,11.09
2022-09-30T18:32:39.218Z,11.11
2022-09-30T18:35:10.265Z,11.03
2022-09-30T18:37:37.012Z,10.71
2022-09-30T18:40:04.106Z,10.56
2022-09-30T18:42:30.772Z,10.34
2022-09-30T18:44:57.849Z,10.34
2022-09-30T18:47:24.657Z,10.29
2022-09-30T18:49:51.456Z,10.17
2022-09-30T18:52:18.233Z,10.30
2022-09-30T18:54:44.995Z,10.29
2022-09-30T18:57:12.106Z,10.39
2022-09-30T18:59:38.860Z,10.40
2022-09-30T19:02:05.730Z,10.27
2022-09-30T19:04:32.792Z,10.33
2022-09-30T19:06:59.658Z,10.25
2022-09-30T19:09:26.977Z,10.18
2022-09-30T19:11:53.800Z,10.07
2022-09-30T19:14:20.834Z,10.08
2022-09-30T19:16:47.667Z,10.12
2022-09-30T19:19:15.834Z,10.14
2022-09-30T19:21:44.903Z,10.03
2022-09-30T19:24:11.627Z,10.12
2022-09-30T19:26:39.183Z,9.99
2022-09-30T19:29:07.912Z,9.83
2022-09-30T19:31:37.090Z,9.71
2022-09-30T19:34:04.490Z,9.75
2022-09-30T19:36:42.128Z,9.63
2022-09-30T19:39:12.490Z,9.61
2022-09-30T19:41:39.638Z,9.53
2022-09-30T19:44:06.425Z,9.52
2022-09-30T19:46:33.386Z,9.58
2022-09-30T19:49:00.043Z,9.48
2022-09-30T19:51:29.436Z,9.65
2022-09-30T19:54:05.418Z,9.56
2022-09-30T19:56:34.566Z,9.40
2022-09-30T19:59:01.404Z,9.26
2022-09-30T20:01:29.382Z,9.12
2022-09-30T20:03:57.773Z,9.16
2022-09-30T20:06:24.661Z,9.27
2022-09-30T20:09:00.404Z,9.29
2022-09-30T20:11:30.146Z,9.19
2022-09-30T20:14:15.737Z,9.13
2022-09-30T20:16:43.846Z,8.96
2022-09-30T20:19:13.924Z,9.17
2022-09-30T20:21:43.932Z,9.17
2022-09-30T20:24:16.953Z,8.94
2022-09-30T20:26:44.859Z,9.01
2022-09-30T20:29:12.129Z,8.98
2022-09-30T20:31:44.163Z,9.05
2022-09-30T20:34:15.968Z,8.86
2022-09-30T20:36:42.995Z,8.67
2022-09-30T20:39:10.298Z,8.57
2022-09-30T20:41:38.646Z,8.63
2022-09-30T20:44:07.578Z,8.53
2022-09-30T20:46:35.030Z,8.64
2022-09-30T20:49:02.614Z,8.69
2022-09-30T20:51:30.808Z,8.71
2022-09-30T20:53:59.107Z,8.45
2022-09-30T20:56:28.474Z,8.62
2022-09-30T20:58:59.832Z,8.66
2022-09-30T21:01:26.810Z,8.72
2022-09-30T21:03:54.061Z,8.56
2022-09-30T21:06:25.253Z,8.52
2022-09-30T21:08:52.910Z,8.49
2022-09-30T21:11:20.333Z,8.45
2022-09-30T21:13:52.477Z,8.40
2022-09-30T21:16:22.241Z,8.27
2022-09-30T21:18:53.150Z,8.30
2022-09-30T21:21:21.807Z,8.31
2022-09-30T21:23:48.933Z,8.19
2022-09-30T21:26:17.449Z,8.30
2022-09-30T21:28:49.243Z,8.19
2022-09-30T21:31:25.154Z,8.06
2022-09-30T21:33:56.723Z,7.80
2022-09-30T21:36:24.414Z,8.00
2022-09-30T21:38:51.638Z,7.89
2022-09-30T21:41:19.827Z,7.82
2022-09-30T21:43:47.247Z,7.95
2022-09-30T21:46:15.367Z,7.91
2022-09-30T21:48:42.735Z,7.84
2022-09-30T21:51:10.306Z,7.86
2022-09-30T21:53:39.117Z,7.93
2022-09-30T21:56:07.017Z,7.94
2022-09-30T21:58:33.954Z,7.76
2022-09-30T22:01:02.653Z,7.88
2022-09-30T22:03:31.200Z,7.67
2022-09-30T22:05:59.067Z,7.77
2022-09-30T22:08:26.783Z,7.84
2022-09-30T22:10:53.716Z,7.93
2022-09-30T22:13:20.527Z,7.90
2022-09-30T22:15:47.606Z,7.64
2022-09-30T22:18:19.677Z,7.57
2022-09-30T22:20:48.076Z,7.70
2022-09-30T22:23:17.689Z,7.65
2022-09-30T22:25:44.440Z,7.71
2022-09-30T22:28:11.631Z,7.47
2022-09-30T22:30:38.287Z,7.52
2022-09-30T22:33:23.890Z,7.50
2022-09-30T22:36:09.145Z,7.48
2022-09-30T22:38:36.312Z,7.55
2022-09-30T22:41:03.531Z,7.45
2022-09-30T22:43:34.244Z,7.49
2022-09-30T22:46:07.750Z,7.44
2022-09-30T22:48:35.335Z,7.42
2022-09-30T22:51:02.532Z,7.43
2022-09-30T22:53:30.110Z,7.43
2022-09-30T22:55:57.270Z,7.48
2022-09-30T22:58:25.380Z,7.27
2022-09-30T23:00:57.210Z,7.40
2022-09-30T23:03:26.167Z,7.39
2022-09-30T23:05:54.005Z,7.39
2022-09-30T23:08:20.832Z,7.32
2022-09-30T23:10:50.053Z,7.33
2022-09-30T23:13:20.196Z,7.40
2022-09-30T23:15:48.024Z,7.26
2022-09-30T23:18:17.323Z,7.26
2022-09-30T23:20:54.586Z,7.09
2022-09-30T23:23:21.540Z,7.08
2022-09-30T23:25:48.304Z,7.19
2022-09-30T23:28:15.365Z,7.16
2022-09-30T23:30:42.099Z,7.15
2022-09-30T23:33:12.991Z,7.10
2022-09-30T23:35:45.738Z,7.09
2022-09-30T23:38:12.613Z,7.11
2022-09-30T23:40:46.823Z,7.12
2022-09-30T23:43:14.262Z,7.07
2022-09-30T23:45:41.786Z,7.03
2022-09-30T23:48:09.141Z,7.09
2022-09-30T23:50:35.904Z,7.12
2022-09-30T23:53:02.633Z,7.06
2022-09-30T23:55:29.910Z,7.06
2022-09-30T23:57:59.395Z,7.05
